This is the latest recevied weather packets stored in our database for station/object LRBC. If no packets are shown the sender has not sent any weather packets the latest 10 day(s).
| Time | Temp. | Humidity | Pressure | Rain* | Wind** | Luminosity | Snow |
|---|---|---|---|---|---|---|---|
| 1777875529 | 13.89° C | 55% | 1016 hPa | - | - | - | - |
| 1777874628 | 13.89° C | 55% | 1016 hPa | - | - | - | - |
| 1777873728 | 12.78° C | 59% | 1016 hPa | - | - | - | - |
| 1777872829 | 12.78° C | 59% | 1016 hPa | - | - | - | - |
| 1777871928 | 10° C | 67% | 1016 hPa | - | - | - | - |
| 1777871037 | 10° C | 67% | 1016 hPa | - | - | - | - |
| 1777870128 | 7.22° C | 81% | 1016 hPa | - | - | - | - |
| 1777869227 | 7.22° C | 81% | 1016 hPa | - | - | - | - |
| 1777868328 | 5° C | 81% | 1017 hPa | - | - | - | - |
| 1777867427 | 5° C | 81% | 1017 hPa | - | - | - | - |
| 1777866528 | 3.89° C | 87% | 1017 hPa | - | - | - | - |
| 1777865627 | 3.89° C | 87% | 1017 hPa | - | - | - | - |
| 1777843128 | 10° C | 58% | 1018 hPa | - | - | - | - |
| 1777839528 | 10° C | 58% | 1018 hPa | - | - | - | - |
| 1777833227 | 10° C | 47% | 1019 hPa | - | - | - | - |
| 1777830548 | 11.11° C | 50% | 1018 hPa | - | - | - | - |
| 1777826927 | 13.89° C | 36% | 1018 hPa | - | - | - | - |
| 1777826027 | 13.89° C | 36% | 1018 hPa | - | - | - | - |
| 1777821528 | 17.22° C | 30% | 1019 hPa | - | - | - | - |
| 1777817929 | 16.11° C | 27% | 1020 hPa | - | - | - | - |
| 1777816125 | 17.22° C | 25% | 1020 hPa | - | - | - | - |
| 1777810742 | 16.11° C | 29% | 1021 hPa | - | - | - | - |
| 1777809828 | 16.11° C | 29% | 1021 hPa | - | - | - | - |
| 1777808028 | 15° C | 31% | 1021 hPa | - | - | - | - |
| 1777807128 | 15° C | 31% | 1022 hPa | - | - | - | - |
* Rain since midnight (hover to see other rain measurements)
** Current wind speed in m/s (hover to see current wind gust speed)